Pagrindinis puslapis
METAR-TAF:

METAR-TAF

Oro uostai :

Mačala, Ekvadoras

platuma: 03-26-07S, ilguma: 079-58-40W, Aukštis: 52 m

Dabartinis oras

Ataskaita buvo paskelbta 45 minutes, ne 23:00 UTC
Vėjas 6 kt iš Vakarų/Šiaurės Vakarų
Temperatūra 23°C
Drėgmė 83%
Slėgis 1011 hPa
Matomumas 10 km arba daugiau
Mažai debesys ne aukštis 1000 ft
Apsiniaukę ne aukštis 1600 ft

METAR: SERO 222300Z 30006KT 9999 FEW010 OVC016 23/20 Q1011

Laikas: 18:45 (23:45 UTC)


TAF: trūkstamas

Orai ataskaitas ir orų prognozės (METAR, TAF).

turimą stotys yra geltonos ir raudonos taškus žemėlapyje.

Perkelti pele per norėdami pamatyti stoties vardą.

Tada spustelėkite, norėdami matyti oro stebėjimo ir prognozės.

Norėdami pakeisti žemėlapį: spustelėkite ant žalios mygtukų su juodo kryžiaus žemyn,; žalią mygtuką su brūkšneliu, jei norite nutolinti; arba žalių rodyklių gretimoms žemėlapius.


METAR-TAF: